createdAt,value
2023-01-06T00:01:17.182Z,155.57
2023-01-06T00:03:45.409Z,155.03
2023-01-06T00:06:13.849Z,155.37
2023-01-06T00:08:41.729Z,155.33
2023-01-06T00:11:10.743Z,155.17
2023-01-06T00:13:40.895Z,154.97
2023-01-06T00:16:10.467Z,155.03
2023-01-06T00:18:38.586Z,154.87
2023-01-06T00:21:07.363Z,154.33
2023-01-06T00:23:36.435Z,154.77
2023-01-06T00:26:05.675Z,154.57
2023-01-06T00:28:34.734Z,154.77
2023-01-06T00:31:09.053Z,155.77
2023-01-06T00:33:37.492Z,154.83
2023-01-06T00:36:07.014Z,155.03
2023-01-06T00:38:36.229Z,155.17
2023-01-06T00:41:25.846Z,155.37
2023-01-06T00:43:53.804Z,155.03
2023-01-06T00:46:25.323Z,155.03
2023-01-06T00:49:04.517Z,154.93
2023-01-06T00:51:35.572Z,155.00
2023-01-06T00:54:03.521Z,155.00
2023-01-06T00:56:31.380Z,155.20
2023-01-06T00:58:59.248Z,154.77
2023-01-06T01:01:28.588Z,155.23
2023-01-06T01:03:56.540Z,155.20
2023-01-06T01:06:24.438Z,155.00
2023-01-06T01:08:55.586Z,155.10
2023-01-06T01:11:41.703Z,155.27
2023-01-06T01:14:10.320Z,155.13
2023-01-06T01:16:41.304Z,154.47
2023-01-06T01:19:11.635Z,154.77
2023-01-06T01:21:39.961Z,155.00
2023-01-06T01:24:08.204Z,155.27
2023-01-06T01:26:36.029Z,155.07
2023-01-06T01:29:04.370Z,154.63
2023-01-06T01:31:32.693Z,155.40
2023-01-06T01:34:01.975Z,154.67
2023-01-06T01:36:30.285Z,154.60
2023-01-06T01:38:58.219Z,154.87
2023-01-06T01:41:27.489Z,154.77
2023-01-06T01:43:57.236Z,155.03
2023-01-06T01:46:29.221Z,155.67
2023-01-06T01:49:00.542Z,155.30
2023-01-06T01:51:33.220Z,155.43
2023-01-06T01:54:04.960Z,155.10
2023-01-06T01:56:36.084Z,154.97
2023-01-06T01:59:06.983Z,155.10
2023-01-06T02:01:35.776Z,155.00
2023-01-06T02:04:04.765Z,154.93
2023-01-06T02:06:34.125Z,155.07
2023-01-06T02:09:05.118Z,155.10
2023-01-06T02:11:34.817Z,154.67
2023-01-06T02:14:14.810Z,155.20
2023-01-06T02:16:55.900Z,155.53
2023-01-06T02:19:44.381Z,154.80
2023-01-06T02:22:31.432Z,154.63
2023-01-06T02:25:36.196Z,155.17
2023-01-06T02:28:27.859Z,155.23
2023-01-06T02:31:17.289Z,154.80
2023-01-06T02:33:49.903Z,155.00
2023-01-06T02:36:28.713Z,155.13
2023-01-06T02:39:12.501Z,155.07
2023-01-06T02:41:44.090Z,155.10
2023-01-06T02:44:20.756Z,155.10
2023-01-06T02:47:00.353Z,155.30
2023-01-06T02:49:37.316Z,155.53
2023-01-06T02:52:12.896Z,155.37
2023-01-06T02:54:53.455Z,154.70
2023-01-06T02:57:27.700Z,155.33
2023-01-06T03:00:04.265Z,154.73
2023-01-06T03:02:36.640Z,154.93
2023-01-06T03:05:07.219Z,154.93
2023-01-06T03:07:37.699Z,155.17
2023-01-06T03:10:08.525Z,154.90
2023-01-06T03:12:42.741Z,155.27
2023-01-06T03:15:11.802Z,155.37
2023-01-06T03:17:41.363Z,155.43
2023-01-06T03:20:10.425Z,155.20
2023-01-06T03:22:39.671Z,155.10
2023-01-06T03:25:09.604Z,155.57
2023-01-06T03:27:39.754Z,155.17
2023-01-06T03:30:11.836Z,155.47
2023-01-06T03:32:49.668Z,155.30
2023-01-06T03:35:39.780Z,154.97
2023-01-06T03:38:15.524Z,154.93
2023-01-06T03:40:51.627Z,155.30
2023-01-06T03:43:25.509Z,154.57
2023-01-06T03:46:08.162Z,154.67
2023-01-06T03:48:53.068Z,154.93
2023-01-06T03:51:32.036Z,155.03
2023-01-06T03:54:05.402Z,155.07
2023-01-06T03:56:39.587Z,155.00
2023-01-06T03:59:11.187Z,155.20
2023-01-06T04:01:43.313Z,154.67
2023-01-06T04:04:13.186Z,154.67
2023-01-06T04:06:41.064Z,155.37
2023-01-06T04:09:08.952Z,154.80
2023-01-06T04:11:56.104Z,154.93
2023-01-06T04:14:24.747Z,154.57
2023-01-06T04:16:53.685Z,155.00
2023-01-06T04:19:23.419Z,155.73
2023-01-06T04:21:51.303Z,154.87
2023-01-06T04:24:19.278Z,155.10
2023-01-06T04:26:47.672Z,154.57
2023-01-06T04:29:15.564Z,155.30
2023-01-06T04:31:43.839Z,155.37
2023-01-06T04:34:11.746Z,154.80
2023-01-06T04:36:40.970Z,155.17
2023-01-06T04:39:08.969Z,155.60
2023-01-06T04:41:36.805Z,154.80
2023-01-06T04:44:04.747Z,154.43
2023-01-06T04:46:32.742Z,155.60
2023-01-06T04:49:00.733Z,155.13
2023-01-06T04:51:28.742Z,155.37
2023-01-06T04:53:57.947Z,155.73
2023-01-06T04:56:26.861Z,155.47
2023-01-06T04:58:55.869Z,155.07
2023-01-06T05:01:24.934Z,155.67
2023-01-06T05:03:53.084Z,155.67
2023-01-06T05:06:21.564Z,155.37
2023-01-06T05:08:49.636Z,154.80
2023-01-06T05:11:20.668Z,154.97
2023-01-06T05:13:48.963Z,155.23
2023-01-06T05:16:19.623Z,155.07
2023-01-06T05:18:47.518Z,154.80
2023-01-06T05:21:15.363Z,155.20
2023-01-06T05:23:43.307Z,155.17
2023-01-06T05:26:18.658Z,155.37
2023-01-06T05:28:46.773Z,154.97
2023-01-06T05:31:14.715Z,155.23
2023-01-06T05:33:42.547Z,154.73
2023-01-06T05:36:12.343Z,155.43
2023-01-06T05:38:40.624Z,155.70
2023-01-06T05:41:08.540Z,155.10
2023-01-06T05:43:38.246Z,155.30
2023-01-06T05:46:08.051Z,155.83
2023-01-06T05:48:36.270Z,155.87
2023-01-06T05:51:05.353Z,155.33
2023-01-06T05:53:33.986Z,155.33
2023-01-06T05:56:02.917Z,155.53
2023-01-06T05:58:32.937Z,155.50
2023-01-06T06:01:02.337Z,155.63
2023-01-06T06:03:30.438Z,155.13
2023-01-06T06:06:04.095Z,155.23
2023-01-06T06:08:31.951Z,155.57
2023-01-06T06:11:03.362Z,155.70
2023-01-06T06:13:31.299Z,155.77
2023-01-06T06:16:09.306Z,156.10
2023-01-06T06:18:42.486Z,155.30
2023-01-06T06:21:11.248Z,155.53
2023-01-06T06:23:40.084Z,155.73
2023-01-06T06:26:08.715Z,155.63
2023-01-06T06:28:37.864Z,155.60
2023-01-06T06:31:08.807Z,155.73
2023-01-06T06:33:36.962Z,155.90
2023-01-06T06:36:06.056Z,155.40
2023-01-06T06:38:33.900Z,155.93
2023-01-06T06:41:01.813Z,155.23
2023-01-06T06:43:30.106Z,155.63
2023-01-06T06:45:57.958Z,155.50
2023-01-06T06:48:28.530Z,155.70
2023-01-06T06:50:59.697Z,156.00
2023-01-06T06:53:27.952Z,155.67
2023-01-06T06:55:56.820Z,155.00
2023-01-06T06:58:24.947Z,155.33
2023-01-06T07:00:53.300Z,155.97
2023-01-06T07:03:22.749Z,155.37
2023-01-06T07:05:53.183Z,155.47
2023-01-06T07:08:21.391Z,155.37
2023-01-06T07:10:49.232Z,155.13
2023-01-06T07:13:17.091Z,155.13
2023-01-06T07:15:44.967Z,155.97
2023-01-06T07:18:12.859Z,156.13
2023-01-06T07:20:40.845Z,155.40
2023-01-06T07:23:09.991Z,155.50
2023-01-06T07:25:37.798Z,155.13
2023-01-06T07:28:07.054Z,155.23
2023-01-06T07:30:35.687Z,155.77
2023-01-06T07:33:03.859Z,156.13
2023-01-06T07:35:31.873Z,155.47
2023-01-06T07:38:03.870Z,155.63
2023-01-06T07:40:33.229Z,155.50
2023-01-06T07:43:04.728Z,155.70
2023-01-06T07:45:32.612Z,156.50
2023-01-06T07:48:00.617Z,155.37
2023-01-06T07:50:29.228Z,155.67
2023-01-06T07:52:58.735Z,156.07
2023-01-06T07:55:26.588Z,155.20
2023-01-06T07:57:55.937Z,155.73
2023-01-06T08:00:23.939Z,155.10
2023-01-06T08:02:51.808Z,154.60
2023-01-06T08:05:19.658Z,155.60
2023-01-06T08:07:47.507Z,156.00
2023-01-06T08:10:15.374Z,156.00
2023-01-06T08:12:43.202Z,155.10
2023-01-06T08:15:13.029Z,155.53
2023-01-06T08:17:40.890Z,155.57
2023-01-06T08:20:09.929Z,155.83
2023-01-06T08:22:37.754Z,154.97
2023-01-06T08:25:05.989Z,155.73
2023-01-06T08:27:33.826Z,155.37
2023-01-06T08:30:01.734Z,155.70
2023-01-06T08:32:31.085Z,155.53
2023-01-06T08:34:58.892Z,155.87
2023-01-06T08:37:26.802Z,155.80
2023-01-06T08:39:54.628Z,155.40
2023-01-06T08:42:22.451Z,156.23
2023-01-06T08:44:50.320Z,155.90
2023-01-06T08:47:18.123Z,155.57
2023-01-06T08:49:47.274Z,155.37
2023-01-06T08:52:15.134Z,155.37
2023-01-06T08:54:42.958Z,155.40
2023-01-06T08:57:11.155Z,155.30
2023-01-06T08:59:39.004Z,155.27
2023-01-06T09:02:07.079Z,156.13
2023-01-06T09:04:35.109Z,156.10
2023-01-06T09:07:04.326Z,158.30
2023-01-06T09:09:32.174Z,158.53
2023-01-06T09:12:00.040Z,159.13
2023-01-06T09:14:27.870Z,159.80
2023-01-06T09:16:55.765Z,159.77
2023-01-06T09:19:23.601Z,160.83
2023-01-06T09:21:51.466Z,161.00
2023-01-06T09:24:20.648Z,160.47
2023-01-06T09:26:48.542Z,161.20
2023-01-06T09:29:16.455Z,161.27
2023-01-06T09:31:44.253Z,161.10
2023-01-06T09:34:12.123Z,161.67
2023-01-06T09:36:39.951Z,162.00
2023-01-06T09:39:07.971Z,161.63
2023-01-06T09:42:10.359Z,161.80
2023-01-06T09:44:47.343Z,161.97
2023-01-06T09:47:19.513Z,161.60
2023-01-06T09:49:52.119Z,161.87
2023-01-06T09:52:27.847Z,162.30
2023-01-06T09:54:58.962Z,162.77
2023-01-06T09:57:34.709Z,162.53
2023-01-06T10:00:06.944Z,162.50
2023-01-06T10:02:39.870Z,162.47
2023-01-06T10:05:22.252Z,162.83
2023-01-06T10:07:58.636Z,163.20
2023-01-06T10:10:34.294Z,163.73
2023-01-06T10:13:25.295Z,162.87
2023-01-06T10:16:02.232Z,162.37
2023-01-06T10:18:38.436Z,163.50
2023-01-06T10:21:14.112Z,162.73
2023-01-06T10:23:55.210Z,164.23
2023-01-06T10:26:29.939Z,163.40
2023-01-06T10:29:03.547Z,164.17
2023-01-06T10:31:38.209Z,164.00
2023-01-06T10:34:13.753Z,163.07
2023-01-06T10:36:43.955Z,164.10
2023-01-06T10:39:17.200Z,163.73
2023-01-06T10:41:50.951Z,164.17
2023-01-06T10:44:21.132Z,163.60
2023-01-06T10:46:50.098Z,163.73
2023-01-06T10:49:19.933Z,164.43
2023-01-06T10:51:53.600Z,164.67
2023-01-06T10:54:25.800Z,166.53
2023-01-06T10:56:56.488Z,166.07
2023-01-06T10:59:25.652Z,166.77
2023-01-06T11:01:55.781Z,167.43
2023-01-06T11:04:24.432Z,166.27
2023-01-06T11:06:55.417Z,166.63
2023-01-06T11:09:29.148Z,164.17
2023-01-06T11:11:59.483Z,167.77
2023-01-06T11:14:31.534Z,165.30
2023-01-06T11:17:02.025Z,164.93
2023-01-06T11:19:37.589Z,165.83
2023-01-06T11:22:12.259Z,166.97
2023-01-06T11:24:51.855Z,167.57
2023-01-06T11:27:19.736Z,167.70
2023-01-06T11:29:48.941Z,166.00
2023-01-06T11:32:20.997Z,163.77
2023-01-06T11:34:54.891Z,165.67
2023-01-06T11:37:35.063Z,166.97
2023-01-06T11:40:11.233Z,167.93
2023-01-06T11:45:34.659Z,168.40
2023-01-06T11:48:03.614Z,167.90
2023-01-06T11:50:31.916Z,168.87
2023-01-06T11:53:01.661Z,166.93
2023-01-06T11:55:30.684Z,168.13
2023-01-06T11:58:03.443Z,168.13
2023-01-06T12:00:39.442Z,167.33
2023-01-06T12:03:15.648Z,167.63
2023-01-06T12:05:51.283Z,167.53
2023-01-06T12:08:22.625Z,167.33
2023-01-06T12:10:55.007Z,168.17
2023-01-06T12:13:23.677Z,168.23
2023-01-06T12:15:59.560Z,168.07
2023-01-06T12:18:32.171Z,168.57
2023-01-06T12:21:02.020Z,167.77
2023-01-06T12:23:33.680Z,168.27
2023-01-06T12:26:05.359Z,168.43
2023-01-06T12:28:36.345Z,168.07
2023-01-06T12:31:09.350Z,167.93
2023-01-06T12:33:41.630Z,168.60
2023-01-06T12:36:16.728Z,168.80
2023-01-06T12:38:53.610Z,167.93
2023-01-06T12:41:27.365Z,167.77
2023-01-06T12:44:01.969Z,167.37
2023-01-06T12:46:37.394Z,167.47
2023-01-06T12:49:12.831Z,167.73
2023-01-06T12:51:45.138Z,167.03
2023-01-06T12:54:17.585Z,167.00
2023-01-06T12:57:02.406Z,167.53
2023-01-06T12:59:45.247Z,166.93
2023-01-06T13:02:24.473Z,166.83
2023-01-06T13:05:24.664Z,167.33
2023-01-06T13:08:02.744Z,167.33
2023-01-06T13:10:35.747Z,167.07
2023-01-06T13:13:22.747Z,167.83
2023-01-06T13:15:52.048Z,168.20
2023-01-06T13:18:28.873Z,167.50
2023-01-06T13:21:02.979Z,168.10
2023-01-06T13:23:54.845Z,168.00
2023-01-06T13:26:52.648Z,168.20
2023-01-06T13:29:36.004Z,166.77
2023-01-06T13:32:25.771Z,168.13
2023-01-06T13:35:26.836Z,167.87
2023-01-06T13:38:06.193Z,168.00
2023-01-06T13:40:40.229Z,168.10
2023-01-06T13:43:20.298Z,168.50
2023-01-06T13:45:52.805Z,168.53
2023-01-06T13:48:24.342Z,168.53
2023-01-06T13:50:53.732Z,168.13
2023-01-06T13:53:24.171Z,168.43
2023-01-06T13:56:26.990Z,168.73
2023-01-06T13:59:23.178Z,168.20
2023-01-06T14:01:52.224Z,168.57
2023-01-06T14:04:46.498Z,167.90
2023-01-06T14:07:16.748Z,167.43
2023-01-06T14:09:49.730Z,167.70
2023-01-06T14:12:21.968Z,168.70
2023-01-06T14:14:58.534Z,168.17
2023-01-06T14:17:40.369Z,168.50
2023-01-06T14:20:26.498Z,167.53
2023-01-06T14:23:05.732Z,168.10
2023-01-06T14:25:39.791Z,167.93
2023-01-06T14:28:23.600Z,168.50
2023-01-06T14:30:53.577Z,168.17
2023-01-06T14:33:36.395Z,167.77
2023-01-06T14:36:07.976Z,167.37
2023-01-06T14:38:44.271Z,167.80
2023-01-06T14:41:22.170Z,167.50
2023-01-06T14:43:55.863Z,167.93
2023-01-06T14:46:27.681Z,168.13
2023-01-06T14:49:00.962Z,168.30
2023-01-06T14:51:30.862Z,168.33
2023-01-06T14:54:06.278Z,167.73
2023-01-06T14:56:34.791Z,167.87
2023-01-06T14:59:15.379Z,167.90
2023-01-06T15:01:45.047Z,168.60
2023-01-06T15:04:30.000Z,168.57
2023-01-06T15:07:00.147Z,167.70
2023-01-06T15:09:29.392Z,167.53
2023-01-06T15:11:57.263Z,167.67
2023-01-06T15:14:26.828Z,168.60
2023-01-06T15:16:56.860Z,168.47
2023-01-06T15:19:25.228Z,168.37
2023-01-06T15:21:54.368Z,168.30
2023-01-06T15:24:24.120Z,167.33
2023-01-06T15:26:55.824Z,167.60
2023-01-06T15:29:25.355Z,168.27
2023-01-06T15:31:54.939Z,167.97
2023-01-06T15:34:26.368Z,167.97
2023-01-06T15:36:56.743Z,167.97
2023-01-06T15:39:28.671Z,167.43
2023-01-06T15:41:59.304Z,167.77
2023-01-06T15:44:29.799Z,167.80
2023-01-06T15:47:16.754Z,168.03
2023-01-06T15:49:50.415Z,168.27
2023-01-06T15:52:24.395Z,168.77
2023-01-06T15:54:54.050Z,168.40
2023-01-06T15:57:23.559Z,168.17
2023-01-06T15:59:58.019Z,168.63
2023-01-06T16:02:30.025Z,168.03
2023-01-06T16:04:59.307Z,168.80
2023-01-06T16:07:39.071Z,168.00
2023-01-06T16:10:35.059Z,165.30
2023-01-06T16:13:33.377Z,163.13
2023-01-06T16:16:06.055Z,162.53
2023-01-06T16:18:36.035Z,161.97
2023-01-06T16:21:16.885Z,160.37
2023-01-06T16:23:49.550Z,161.50
2023-01-06T16:26:19.949Z,159.40
2023-01-06T16:28:51.104Z,158.23
2023-01-06T16:31:30.515Z,156.67
2023-01-06T16:34:16.261Z,157.00
2023-01-06T16:36:44.206Z,156.20
2023-01-06T16:39:12.002Z,156.47
2023-01-06T16:41:41.137Z,156.03
2023-01-06T16:44:11.371Z,156.67
2023-01-06T16:46:39.236Z,155.83
2023-01-06T16:49:11.298Z,156.20
2023-01-06T16:51:39.364Z,155.50
2023-01-06T16:54:11.588Z,156.13
2023-01-06T16:56:39.779Z,156.43
2023-01-06T16:59:14.016Z,155.07
2023-01-06T17:01:43.125Z,154.67
2023-01-06T17:04:12.190Z,155.17
2023-01-06T17:06:41.144Z,155.57
2023-01-06T17:09:18.178Z,155.07
2023-01-06T17:11:46.609Z,154.87
2023-01-06T17:14:18.261Z,155.27
2023-01-06T17:16:47.275Z,156.03
2023-01-06T17:19:20.327Z,155.30
2023-01-06T17:21:49.537Z,154.87
2023-01-06T17:24:20.917Z,155.47
2023-01-06T17:26:52.341Z,154.87
2023-01-06T17:29:22.492Z,154.63
2023-01-06T17:31:52.939Z,154.57
2023-01-06T17:34:24.645Z,154.93
2023-01-06T17:36:56.354Z,155.47
2023-01-06T17:39:27.238Z,155.13
2023-01-06T17:42:02.452Z,155.00
2023-01-06T17:44:36.630Z,154.27
2023-01-06T17:47:11.891Z,155.23
2023-01-06T17:49:39.846Z,155.33
2023-01-06T17:52:17.906Z,155.37
2023-01-06T17:55:11.620Z,155.00
2023-01-06T17:57:42.131Z,154.60
2023-01-06T18:00:22.288Z,155.47
2023-01-06T18:02:55.710Z,155.17
2023-01-06T18:05:55.040Z,154.97
2023-01-06T18:08:23.544Z,155.13
2023-01-06T18:10:53.901Z,155.00
2023-01-06T18:13:24.827Z,155.20
2023-01-06T18:15:57.561Z,154.83
2023-01-06T18:18:28.632Z,154.47
2023-01-06T18:20:59.676Z,155.27
2023-01-06T18:23:28.632Z,155.50
2023-01-06T18:25:59.763Z,155.93
2023-01-06T18:28:28.453Z,155.13
2023-01-06T18:30:59.750Z,154.27
2023-01-06T18:33:29.771Z,154.60
2023-01-06T18:35:58.298Z,154.53
2023-01-06T18:38:26.655Z,154.80
2023-01-06T18:40:54.614Z,154.17
2023-01-06T18:43:27.712Z,154.67
2023-01-06T18:46:01.086Z,154.43
2023-01-06T18:48:31.748Z,154.27
2023-01-06T18:51:00.963Z,154.90
2023-01-06T18:53:30.878Z,154.87
2023-01-06T18:56:00.106Z,154.80
2023-01-06T18:58:41.225Z,154.47
2023-01-06T19:01:19.539Z,153.97
2023-01-06T19:03:58.469Z,154.63
2023-01-06T19:06:39.350Z,155.13
2023-01-06T19:09:29.405Z,154.03
2023-01-06T19:12:03.286Z,154.20
2023-01-06T19:14:34.843Z,154.57
2023-01-06T19:17:12.914Z,154.63
2023-01-06T19:19:42.400Z,154.10
2023-01-06T19:22:22.467Z,154.77
2023-01-06T19:24:53.764Z,154.03
2023-01-06T19:27:47.582Z,154.57
2023-01-06T19:30:35.818Z,154.20
2023-01-06T19:33:36.794Z,153.97
2023-01-06T19:36:42.587Z,154.20
2023-01-06T19:39:33.593Z,154.73
2023-01-06T19:42:14.344Z,154.27
2023-01-06T19:44:42.710Z,153.90
2023-01-06T19:47:19.096Z,154.10
2023-01-06T19:49:53.037Z,154.07
2023-01-06T19:52:39.954Z,153.80
2023-01-06T19:55:22.213Z,154.53
2023-01-06T19:57:52.683Z,154.77
2023-01-06T20:00:30.081Z,154.27
2023-01-06T20:03:01.625Z,154.40
2023-01-06T20:05:32.185Z,154.50
2023-01-06T20:08:00.076Z,154.27
2023-01-06T20:10:27.949Z,155.10
2023-01-06T20:12:55.850Z,154.03
2023-01-06T20:15:23.667Z,154.33
2023-01-06T20:17:51.475Z,154.63
2023-01-06T20:20:19.389Z,154.57
2023-01-06T20:22:48.553Z,155.13
2023-01-06T20:25:16.583Z,154.70
2023-01-06T20:27:44.425Z,154.93
2023-01-06T20:30:12.659Z,155.50
2023-01-06T20:32:40.589Z,154.17
2023-01-06T20:35:10.025Z,154.33
2023-01-06T20:37:39.413Z,155.40
2023-01-06T20:40:10.165Z,154.57
2023-01-06T20:42:37.984Z,154.53
2023-01-06T20:45:06.996Z,154.37
2023-01-06T20:47:34.928Z,154.97
2023-01-06T20:50:02.789Z,154.90
2023-01-06T20:52:30.677Z,154.77
2023-01-06T20:54:58.518Z,154.40
2023-01-06T20:57:28.033Z,154.40
2023-01-06T20:59:55.884Z,154.60
2023-01-06T21:02:23.798Z,154.90
2023-01-06T21:04:51.822Z,155.10
2023-01-06T21:07:19.688Z,155.10
2023-01-06T21:09:47.513Z,154.33
2023-01-06T21:12:15.368Z,154.67
2023-01-06T21:14:44.555Z,155.00
2023-01-06T21:17:12.360Z,155.33
2023-01-06T21:19:40.223Z,156.73
2023-01-06T21:22:08.119Z,156.80
2023-01-06T21:24:35.967Z,156.73
2023-01-06T21:27:03.865Z,154.17
2023-01-06T21:29:31.674Z,155.10
2023-01-06T21:32:00.824Z,154.40
2023-01-06T21:34:28.693Z,154.33
2023-01-06T21:36:56.518Z,154.40
2023-01-06T21:39:24.389Z,154.67
2023-01-06T21:42:06.158Z,154.23
2023-01-06T21:44:34.046Z,154.10
2023-01-06T21:47:03.722Z,154.73
2023-01-06T21:49:31.749Z,154.50
2023-01-06T21:52:03.139Z,154.37
2023-01-06T21:54:31.076Z,154.03
2023-01-06T21:56:58.967Z,153.67
2023-01-06T21:59:27.113Z,153.10
2023-01-06T22:01:55.112Z,153.57
2023-01-06T22:04:24.801Z,154.43
2023-01-06T22:06:53.725Z,154.97
2023-01-06T22:09:23.583Z,154.47
2023-01-06T22:11:52.692Z,154.60
2023-01-06T22:14:20.689Z,154.40
2023-01-06T22:16:48.797Z,154.43
2023-01-06T22:19:17.512Z,154.00
2023-01-06T22:21:47.253Z,153.63
2023-01-06T22:24:18.191Z,153.90
2023-01-06T22:26:46.295Z,153.83
2023-01-06T22:29:14.102Z,153.90
2023-01-06T22:31:41.918Z,154.47
2023-01-06T22:34:09.723Z,154.47
2023-01-06T22:36:37.593Z,153.70
2023-01-06T22:39:07.205Z,155.43
2023-01-06T22:41:35.175Z,153.97
2023-01-06T22:44:03.051Z,154.27
2023-01-06T22:46:31.383Z,153.23
2023-01-06T22:48:59.234Z,154.43
2023-01-06T22:51:28.504Z,154.07
2023-01-06T22:53:57.343Z,153.50
2023-01-06T22:56:26.578Z,153.90
2023-01-06T22:58:54.457Z,153.97
2023-01-06T23:01:22.531Z,153.87
2023-01-06T23:03:50.575Z,154.10
2023-01-06T23:06:18.491Z,154.30
2023-01-06T23:08:59.675Z,153.77
2023-01-06T23:11:32.444Z,153.33
2023-01-06T23:14:00.541Z,154.10
2023-01-06T23:16:29.968Z,153.50
2023-01-06T23:18:57.941Z,154.00
2023-01-06T23:21:27.273Z,154.43
2023-01-06T23:23:55.451Z,154.03
2023-01-06T23:26:25.020Z,153.93
2023-01-06T23:28:54.864Z,154.83
2023-01-06T23:31:24.644Z,153.57
2023-01-06T23:33:55.620Z,154.37
2023-01-06T23:36:25.461Z,154.17
2023-01-06T23:38:54.056Z,153.53
2023-01-06T23:41:23.708Z,154.67
2023-01-06T23:43:51.879Z,153.60
2023-01-06T23:46:22.683Z,153.80
2023-01-06T23:48:50.900Z,153.77
2023-01-06T23:51:19.351Z,154.50
2023-01-06T23:53:47.531Z,153.70
2023-01-06T23:56:17.279Z,154.60
2023-01-06T23:58:46.942Z,154.77
